Time;durP1;ratioP1;P1;durP2;ratioP2;P2;SDS_P1;SDS_P2;PMS_P1;PMS_P2;Temp;Humidity;BMP_temperature;BMP_pressure;BME280_temperature;BME280_humidity;BME280_pressure;Samples;Min_cycle;Max_cycle;Signal;HPM_P1;HPM_P2
2021/07/15 00:01:32;;;;;;;9.05;7.35;;;;;;;0.01;0.00;59042.03;10279097;28;20037;-59
2021/07/15 00:06:31;;;;;;;12.65;7.68;;;;;;;0.01;0.00;59042.03;10278748;28;20040;-60
2021/07/15 00:11:34;;;;;;;10.63;6.55;;;;;;;0.01;0.00;59042.03;10278093;28;20045;-59
2021/07/15 00:16:33;;;;;;;12.73;6.80;;;;;;;0.01;0.00;59042.03;10277784;28;20084;-59
2021/07/15 00:21:32;;;;;;;12.30;7.10;;;;;;;0.01;0.00;59042.03;10277895;28;20504;-60
2021/07/15 00:26:32;;;;;;;11.48;5.95;;;;;;;0.01;0.00;59042.03;10278080;28;20041;-59
2021/07/15 00:31:32;;;;;;;9.68;6.80;;;;;;;0.01;0.00;59042.03;10278268;28;20048;-59
2021/07/15 00:36:30;;;;;;;9.43;6.45;;;;;;;0.01;0.00;59042.03;10276799;28;20049;-59
2021/07/15 00:41:29;;;;;;;7.32;5.63;;;;;;;0.01;0.00;59042.03;10276661;28;20056;-59
2021/07/15 00:46:29;;;;;;;11.05;6.07;;;;;;;0.01;0.00;59042.03;10276319;28;20490;-60
2021/07/15 00:51:31;;;;;;;7.82;5.53;;;;;;;0.01;0.00;59042.03;10276168;28;20477;-59
2021/07/15 00:56:31;;;;;;;10.55;5.95;;;;;;;0.01;0.00;59042.03;10276545;28;20084;-59
2021/07/15 01:01:31;;;;;;;12.13;6.10;;;;;;;0.01;0.00;59042.03;10276097;28;20544;-59
2021/07/15 01:06:30;;;;;;;10.90;8.80;;;;;;;0.01;0.00;59042.03;10276058;28;20418;-57
2021/07/15 01:11:37;;;;;;;8.95;5.82;;;;;;;0.01;0.00;59042.03;10276363;28;20052;-57
2021/07/15 01:16:41;;;;;;;11.20;6.03;;;;;;;0.01;0.00;59042.03;10275497;28;20091;-57
2021/07/15 01:22:03;;;;;;;12.98;6.50;;;;;;;0.01;0.00;59042.03;10275193;28;20057;-58
2021/07/15 01:27:34;;;;;;;11.93;6.32;;;;;;;0.01;0.00;59042.03;10258040;28;20049;-57
2021/07/15 01:32:40;;;;;;;9.75;6.20;;;;;;;0.01;0.00;59042.03;10268929;28;20084;-57
2021/07/15 01:37:42;;;;;;;8.00;6.43;;;;;;;0.01;0.00;59042.03;10276024;28;20049;-57
2021/07/15 01:42:42;;;;;;;8.25;6.45;;;;;;;0.01;0.00;59042.03;10276305;28;20041;-58
2021/07/15 01:47:42;;;;;;;11.52;7.22;;;;;;;0.01;0.00;59042.03;10275455;28;20505;-58
2021/07/15 01:52:42;;;;;;;11.80;6.60;;;;;;;0.01;0.00;59042.03;10274739;28;20445;-58
2021/07/15 01:57:43;;;;;;;8.30;5.97;;;;;;;0.01;0.00;59042.03;10274923;28;20064;-58
2021/07/15 02:02:47;;;;;;;10.20;6.65;;;;;;;0.01;0.00;59042.03;10274752;28;20052;-57
2021/07/15 02:07:48;;;;;;;7.38;6.40;;;;;;;0.01;0.00;59042.03;10274563;28;20545;-57
2021/07/15 02:12:48;;;;;;;10.27;6.45;;;;;;;0.01;0.00;59042.03;10275603;28;20049;-57
2021/07/15 02:17:49;;;;;;;10.45;7.57;;;;;;;0.01;0.00;59042.03;10279280;28;20045;-57
2021/07/15 02:22:51;;;;;;;15.05;6.82;;;;;;;0.01;0.00;59042.03;10281986;28;20044;-57
2021/07/15 02:27:53;;;;;;;10.73;7.72;;;;;;;0.01;0.00;59042.03;10281802;28;20054;-58
2021/07/15 02:32:58;;;;;;;11.70;7.28;;;;;;;0.01;0.00;59042.03;10282022;28;20048;-57
2021/07/15 02:37:59;;;;;;;9.75;7.47;;;;;;;0.01;0.00;59042.03;10281961;28;20045;-58
2021/07/15 02:42:58;;;;;;;8.57;6.43;;;;;;;0.01;0.00;59042.03;10281329;28;20088;-58
2021/07/15 02:47:58;;;;;;;8.43;6.85;;;;;;;0.01;0.00;59042.03;10281285;28;20049;-57
2021/07/15 02:52:58;;;;;;;13.35;7.43;;;;;;;0.01;0.00;59042.03;10281288;28;20045;-58
2021/07/15 02:58:02;;;;;;;9.25;6.70;;;;;;;0.01;0.00;59042.03;10281754;28;20494;-58
2021/07/15 03:03:13;;;;;;;11.07;6.32;;;;;;;0.01;0.00;59042.03;10280314;28;20075;-58
2021/07/15 03:08:19;;;;;;;14.45;7.30;;;;;;;0.01;0.00;59042.03;10278973;28;20494;-58
2021/07/15 03:13:18;;;;;;;7.47;6.30;;;;;;;0.01;0.00;59042.03;10280347;28;20080;-57
2021/07/15 03:18:21;;;;;;;9.77;5.68;;;;;;;0.01;0.00;59042.03;10279900;28;20069;-58
2021/07/15 03:23:22;;;;;;;7.45;6.38;;;;;;;0.01;0.00;59042.03;10279228;28;20423;-58
2021/07/15 03:28:25;;;;;;;11.38;5.85;;;;;;;0.01;0.00;59042.03;10274512;28;20530;-55
2021/07/15 03:33:26;;;;;;;9.73;7.87;;;;;;;0.01;0.00;59042.03;10279400;28;20514;-58
2021/07/15 03:38:25;;;;;;;8.25;6.50;;;;;;;0.01;0.00;59042.03;10277705;28;20744;-56
2021/07/15 03:43:24;;;;;;;12.95;7.05;;;;;;;0.01;0.00;59042.03;10276145;28;20487;-58
2021/07/15 03:48:27;;;;;;;9.32;6.47;;;;;;;0.01;0.00;59042.03;10318910;28;20060;-58
2021/07/15 03:53:27;;;;;;;14.48;6.50;;;;;;;0.01;0.00;59042.03;10320120;28;20083;-58
2021/07/15 03:58:27;;;;;;;14.95;7.22;;;;;;;0.01;0.00;59042.03;10319709;28;20513;-58
2021/07/15 04:03:30;;;;;;;20.70;7.82;;;;;;;0.01;0.00;59042.03;10319481;28;20146;-58
2021/07/15 04:08:29;;;;;;;17.60;6.97;;;;;;;0.01;0.00;59042.03;10318020;28;20044;-57
2021/07/15 04:13:29;;;;;;;7.82;5.38;;;;;;;0.01;0.00;59042.03;10315161;28;20068;-57
2021/07/15 04:18:35;;;;;;;9.07;5.13;;;;;;;0.01;0.00;59042.03;10315920;28;20107;-58
2021/07/15 04:23:35;;;;;;;13.05;7.03;;;;;;;0.01;0.00;59042.03;10316700;28;20075;-58
2021/07/15 04:28:35;;;;;;;14.32;11.77;;;;;;;0.01;0.00;59042.03;10317889;28;20036;-58
2021/07/15 04:33:40;;;;;;;12.27;4.43;;;;;;;0.01;0.00;59042.03;10319160;28;20068;-58
2021/07/15 04:38:39;;;;;;;13.60;5.00;;;;;;;0.01;0.00;59042.03;10314204;28;20072;-57
2021/07/15 04:43:40;;;;;;;7.60;4.60;;;;;;;0.01;0.00;59042.03;10314468;28;20446;-58
2021/07/15 04:48:41;;;;;;;7.30;4.38;;;;;;;0.01;0.00;59042.03;10314811;28;20525;-58
2021/07/15 04:53:40;;;;;;;13.32;4.70;;;;;;;0.01;0.00;59042.03;10317335;28;20083;-59
2021/07/15 04:58:41;;;;;;;14.40;4.68;;;;;;;0.01;0.00;59042.03;10318298;28;20471;-58
2021/07/15 05:03:41;;;;;;;7.43;4.20;;;;;;;0.01;0.00;59042.03;10318307;28;20056;-58
2021/07/15 05:08:40;;;;;;;9.70;4.38;;;;;;;0.01;0.00;59042.03;10317086;28;20063;-58
2021/07/15 05:13:38;;;;;;;13.82;4.47;;;;;;;0.01;0.00;59042.03;10316830;28;20055;-58
2021/07/15 05:18:37;;;;;;;12.85;3.80;;;;;;;0.01;0.00;59042.03;10317145;28;20051;-58
2021/07/15 05:23:37;;;;;;;6.90;3.60;;;;;;;0.01;0.00;59042.03;10317469;28;20045;-57
2021/07/15 05:28:36;;;;;;;6.47;4.22;;;;;;;0.01;0.00;59042.03;10317361;28;20059;-57
2021/07/15 05:33:35;;;;;;;7.13;3.97;;;;;;;0.01;0.00;59042.03;10316467;28;20044;-57
2021/07/15 05:38:34;;;;;;;6.65;3.50;;;;;;;0.01;0.00;59042.03;10317293;28;20041;-57
2021/07/15 05:43:34;;;;;;;7.60;3.53;;;;;;;0.01;0.00;59042.03;10317030;28;20051;-57
2021/07/15 05:48:33;;;;;;;4.25;3.05;;;;;;;0.01;0.00;59042.03;10316007;28;20056;-57
2021/07/15 05:53:31;;;;;;;10.73;4.20;;;;;;;0.01;0.00;59042.03;10326311;28;20041;-57
2021/07/15 05:58:30;;;;;;;8.85;3.92;;;;;;;0.01;0.00;59042.03;10329468;28;20520;-57
2021/07/15 06:03:31;;;;;;;5.20;3.47;;;;;;;0.01;0.00;59042.03;10329660;28;20417;-57
2021/07/15 06:08:29;;;;;;;9.15;3.45;;;;;;;0.01;0.00;59042.03;10328717;28;20041;-57
2021/07/15 06:13:28;;;;;;;6.72;3.60;;;;;;;0.01;0.00;59042.03;10329709;28;20045;-57
2021/07/15 06:18:27;;;;;;;4.25;3.13;;;;;;;0.01;0.00;59042.03;10328557;28;20071;-57
2021/07/15 06:23:27;;;;;;;9.63;3.90;;;;;;;0.01;0.00;59042.03;10328168;28;20055;-58
2021/07/15 06:28:26;;;;;;;8.75;3.30;;;;;;;0.01;0.00;59042.03;10329844;28;20082;-57
2021/07/15 06:33:25;;;;;;;6.50;3.55;;;;;;;0.01;0.00;59042.03;10329675;28;20048;-57
2021/07/15 06:38:30;;;;;;;7.50;4.10;;;;;;;0.01;0.00;59042.03;10328739;28;20488;-58
2021/07/15 06:43:29;;;;;;;7.28;3.05;;;;;;;0.01;0.00;59042.03;10329422;28;20040;-58
2021/07/15 06:48:29;;;;;;;8.88;3.40;;;;;;;0.01;0.00;59042.03;10311043;28;20056;-58
2021/07/15 06:53:29;;;;;;;6.38;2.70;;;;;;;0.01;0.00;59042.03;10329180;28;20052;-58
2021/07/15 06:58:28;;;;;;;5.22;2.53;;;;;;;0.01;0.00;59042.03;10329068;28;20079;-59
2021/07/15 07:03:27;;;;;;;7.50;2.97;;;;;;;0.01;0.00;59042.03;10325813;28;20041;-57
2021/07/15 07:08:26;;;;;;;4.47;2.72;;;;;;;0.01;0.00;59042.03;10322621;28;20037;-58
2021/07/15 07:13:26;;;;;;;11.52;2.92;;;;;;;0.01;0.00;59042.03;10321291;28;20083;-58
2021/07/15 07:18:25;;;;;;;5.85;2.42;;;;;;;0.01;0.00;59042.03;10321119;28;20080;-58
2021/07/15 07:23:24;;;;;;;9.80;2.15;;;;;;;0.01;0.00;59042.03;10321284;28;20072;-57
2021/07/15 07:28:22;;;;;;;3.20;2.40;;;;;;;0.01;0.00;59042.03;10321861;28;20041;-58
2021/07/15 07:33:22;;;;;;;8.90;2.75;;;;;;;0.01;0.00;59042.03;10321579;28;20040;-58
2021/07/15 07:38:22;;;;;;;6.85;2.40;;;;;;;0.01;0.00;59042.03;10320833;28;20088;-58
2021/07/15 07:43:20;;;;;;;7.30;2.47;;;;;;;0.01;0.00;59042.03;10321159;28;20414;-58
2021/07/15 07:48:19;;;;;;;5.15;2.45;;;;;;;0.01;0.00;59042.03;10320704;28;20063;-57
2021/07/15 07:53:21;;;;;;;10.10;2.30;;;;;;;0.01;0.00;59042.03;10319937;28;20087;-59
2021/07/15 07:58:21;;;;;;;4.43;3.10;;;;;;;0.01;0.00;59042.03;10320161;28;20076;-57
2021/07/15 08:03:20;;;;;;;6.53;2.25;;;;;;;0.01;0.00;59042.03;10319634;28;20409;-58
2021/07/15 08:08:21;;;;;;;5.93;2.38;;;;;;;0.01;0.00;59042.03;10320167;28;20043;-57
2021/07/15 08:13:21;;;;;;;5.80;2.47;;;;;;;0.01;0.00;59042.03;10318225;28;20048;-58
2021/07/15 08:18:20;;;;;;;7.68;2.75;;;;;;;0.01;0.00;59042.03;10318983;28;20116;-57
2021/07/15 08:23:19;;;;;;;5.70;2.30;;;;;;;0.01;0.00;59042.03;10319069;28;20382;-58
2021/07/15 08:28:17;;;;;;;6.40;2.47;;;;;;;0.01;0.00;59042.03;10318617;28;20482;-58
2021/07/15 08:33:18;;;;;;;9.43;2.72;;;;;;;0.01;0.00;59042.03;10319174;28;20048;-58
2021/07/15 08:38:16;;;;;;;4.07;2.65;;;;;;;0.01;0.00;59042.03;10319136;28;20075;-57
2021/07/15 08:43:16;;;;;;;6.13;3.00;;;;;;;0.01;0.00;59042.03;10317941;28;20150;-58
2021/07/15 08:48:19;;;;;;;11.40;2.65;;;;;;;0.01;0.00;59042.03;10318498;28;20383;-57
2021/07/15 08:53:20;;;;;;;4.32;2.65;;;;;;;0.01;0.00;59042.03;10318414;28;20048;-57
2021/07/15 08:58:19;;;;;;;5.70;2.60;;;;;;;0.01;0.00;59042.03;10299318;28;20045;-58
2021/07/15 09:03:20;;;;;;;8.43;2.40;;;;;;;0.01;0.00;59042.03;10318007;28;20525;-58
2021/07/15 09:08:19;;;;;;;11.63;2.00;;;;;;;0.01;0.00;59042.03;10317813;28;20033;-57
2021/07/15 09:13:17;;;;;;;12.70;3.80;;;;;;;0.01;0.00;59042.03;10317003;28;20051;-58
2021/07/15 09:18:17;;;;;;;9.82;2.72;;;;;;;0.01;0.00;59042.03;10316894;28;20079;-58
2021/07/15 09:23:19;;;;;;;6.05;2.20;;;;;;;0.01;0.00;59042.03;10317473;28;20044;-58
2021/07/15 09:28:31;;;;;;;5.30;2.67;;;;;;;0.01;0.00;59042.03;10316160;28;20049;-58
2021/07/15 09:33:37;;;;;;;8.40;2.55;;;;;;;0.01;0.00;59042.03;10316553;28;20536;-58
2021/07/15 09:38:40;;;;;;;6.25;3.22;;;;;;;0.01;0.00;59042.03;10317120;28;20044;-57
2021/07/15 09:43:41;;;;;;;6.95;2.33;;;;;;;0.01;0.00;59042.03;10298516;28;20049;-58
2021/07/15 09:48:41;;;;;;;16.25;2.30;;;;;;;0.01;0.00;59042.03;10316265;28;20045;-57
2021/07/15 09:53:42;;;;;;;7.50;2.70;;;;;;;0.01;0.00;59042.03;10316944;28;20044;-57
2021/07/15 09:58:42;;;;;;;5.43;2.28;;;;;;;0.01;0.00;59042.03;10316031;28;20488;-58
2021/07/15 10:03:43;;;;;;;5.05;2.30;;;;;;;0.01;0.00;59042.03;10316193;28;20056;-57
2021/07/15 10:08:46;;;;;;;6.28;2.65;;;;;;;0.01;0.00;59042.03;10316627;28;20045;-57
2021/07/15 10:13:46;;;;;;;13.43;3.05;;;;;;;0.01;0.00;59042.03;10316658;28;20406;-57
2021/07/15 10:18:49;;;;;;;4.80;3.03;;;;;;;0.01;0.00;59042.03;10315518;28;20051;-57
2021/07/15 10:23:50;;;;;;;10.98;3.25;;;;;;;0.01;0.00;59042.03;10315718;28;20060;-57
2021/07/15 10:28:58;;;;;;;7.22;3.38;;;;;;;0.01;0.00;59042.03;10315921;28;20048;-57
2021/07/15 10:33:57;;;;;;;7.97;3.05;;;;;;;0.01;0.00;59042.03;10316364;28;20064;-57
2021/07/15 10:39:00;;;;;;;7.53;2.45;;;;;;;0.01;0.00;59042.03;10320583;28;20099;-57
2021/07/15 10:43:59;;;;;;;3.75;2.75;;;;;;;0.01;0.00;59042.03;10323519;28;20051;-57
2021/07/15 10:48:58;;;;;;;4.75;2.80;;;;;;;0.01;0.00;59042.03;10322557;28;20045;-57
2021/07/15 10:53:58;;;;;;;6.03;2.83;;;;;;;0.01;0.00;59042.03;10323330;28;20492;-57
2021/07/15 10:58:57;;;;;;;6.97;2.88;;;;;;;0.01;0.00;59042.03;10321519;28;20056;-57
2021/07/15 11:04:06;;;;;;;10.15;3.40;;;;;;;0.01;0.00;59042.03;10322162;28;20060;-57
2021/07/15 11:09:10;;;;;;;9.38;2.80;;;;;;;0.01;0.00;59042.03;10322431;28;20066;-58
2021/07/15 11:14:37;;;;;;;8.50;3.13;;;;;;;0.01;0.00;59042.03;10321371;28;20052;-58
2021/07/15 11:20:00;;;;;;;6.40;2.88;;;;;;;0.01;0.00;59042.03;10322534;28;20079;-58
2021/07/15 11:25:05;;;;;;;8.38;2.95;;;;;;;0.01;0.00;59042.03;10322052;28;20490;-58
2021/07/15 11:30:07;;;;;;;8.27;2.40;;;;;;;0.01;0.00;59042.03;10321046;28;20044;-58
2021/07/15 11:35:25;;;;;;;8.55;2.92;;;;;;;0.01;0.00;59042.03;10320692;28;20501;-58
2021/07/15 11:40:44;;;;;;;3.90;2.83;;;;;;;0.01;0.00;59042.03;10320020;28;20084;-58
2021/07/15 11:46:17;;;;;;;14.02;3.10;;;;;;;0.01;0.00;59042.03;10302424;28;20080;-58
2021/07/15 11:51:32;;;;;;;7.03;2.40;;;;;;;0.01;0.00;59042.03;10320177;28;20055;-58
2021/07/15 11:56:35;;;;;;;4.47;2.28;;;;;;;0.01;0.00;59042.03;10320490;28;20068;-58
2021/07/15 12:01:36;;;;;;;8.50;2.92;;;;;;;0.01;0.00;59042.03;10320829;28;20040;-58
2021/07/15 12:06:37;;;;;;;4.22;2.47;;;;;;;0.01;0.00;59042.03;10319599;28;20083;-58
2021/07/15 12:11:39;;;;;;;5.65;2.65;;;;;;;0.01;0.00;59042.03;10319787;28;20124;-58
2021/07/15 12:16:40;;;;;;;7.55;2.60;;;;;;;0.01;0.00;59042.03;10319622;28;20068;-58
2021/07/15 12:21:40;;;;;;;4.93;2.33;;;;;;;0.01;0.00;59042.03;10318986;28;20441;-58
2021/07/15 12:26:40;;;;;;;8.25;2.70;;;;;;;0.01;0.00;59042.03;10319154;28;20044;-58
2021/07/15 12:31:39;;;;;;;5.82;2.80;;;;;;;0.01;0.00;59042.03;10300371;28;20142;-58
2021/07/15 12:36:40;;;;;;;14.80;2.63;;;;;;;0.01;0.00;59042.03;10318181;28;20047;-58
2021/07/15 12:41:43;;;;;;;4.57;2.72;;;;;;;0.01;0.00;59042.03;10318543;28;20068;-58
2021/07/15 12:46:44;;;;;;;8.35;2.50;;;;;;;0.01;0.00;59042.03;10318536;28;20099;-59
2021/07/15 12:51:49;;;;;;;5.80;2.80;;;;;;;0.01;0.00;59042.03;10317918;28;20059;-59
2021/07/15 12:56:50;;;;;;;3.70;3.05;;;;;;;0.01;0.00;59042.03;10317944;28;20055;-58
2021/07/15 13:01:49;;;;;;;7.90;3.90;;;;;;;0.01;0.00;59042.03;10317394;28;20482;-58
2021/07/15 13:06:51;;;;;;;7.53;3.33;;;;;;;0.01;0.00;59042.03;10317162;28;20056;-57
2021/07/15 13:17:38;;;;;;;5.13;2.75;;;;;;;0.01;0.00;59042.03;10317483;28;20083;-58
2021/07/15 13:22:42;;;;;;;5.50;2.40;;;;;;;0.01;0.00;59042.03;10317410;28;20240;-58
2021/07/15 13:27:43;;;;;;;;;;;;;;;0.01;0.00;59042.03;10317519;28;20301;-58
2021/07/15 13:32:42;;;;;;;4.78;3.10;;;;;;;0.01;0.00;59042.03;10316615;28;19921;-58
2021/07/15 13:37:40;;;;;;;9.05;2.78;;;;;;;0.01;0.00;59042.03;10316208;28;20521;-58
2021/07/15 13:42:39;;;;;;;6.00;3.35;;;;;;;0.01;0.00;59042.03;10316849;28;20068;-58
2021/07/15 13:47:42;;;;;;;5.97;3.20;;;;;;;0.01;0.00;59042.03;10316278;28;20521;-58
2021/07/15 13:52:42;;;;;;;9.63;3.67;;;;;;;0.01;0.00;59042.03;10316518;28;20048;-58
2021/07/15 13:57:43;;;;;;;6.53;2.80;;;;;;;0.01;0.00;59042.03;10316838;28;20053;-58
2021/07/15 14:02:44;;;;;;;9.88;3.88;;;;;;;0.01;0.00;59042.03;10315905;28;20048;-58
2021/07/15 14:07:43;;;;;;;6.43;3.38;;;;;;;0.01;0.00;59042.03;10316507;28;20056;-58
2021/07/15 14:12:45;;;;;;;7.70;3.22;;;;;;;0.01;0.00;59042.03;10319053;28;20036;-58
2021/07/15 14:17:57;;;;;;;9.38;2.97;;;;;;;0.01;0.00;59042.03;10323753;28;20079;-57
2021/07/15 14:22:56;;;;;;;7.60;2.97;;;;;;;0.01;0.00;59042.03;10324354;28;20041;-58
2021/07/15 14:27:56;;;;;;;10.25;3.47;;;;;;;0.01;0.00;59042.03;10311603;28;20084;-58
2021/07/15 14:32:57;;;;;;;9.25;3.38;;;;;;;0.01;0.00;59042.03;10319103;28;20060;-57
2021/07/15 14:37:56;;;;;;;12.57;3.03;;;;;;;0.01;0.00;59042.03;10320023;28;20073;-58
2021/07/15 14:42:55;;;;;;;8.07;3.10;;;;;;;0.01;0.00;59042.03;10320325;28;20060;-56
2021/07/15 14:47:55;;;;;;;10.93;3.78;;;;;;;0.01;0.00;59042.03;10321541;28;20047;-58
2021/07/15 14:52:55;;;;;;;8.00;3.03;;;;;;;0.01;0.00;59042.03;10321911;28;20033;-55
2021/07/15 14:57:55;;;;;;;5.43;3.75;;;;;;;0.01;0.00;59042.03;10319949;28;20064;-57
2021/07/15 15:02:55;;;;;;;8.60;3.30;;;;;;;0.01;0.00;59042.03;10319037;28;20108;-57
2021/07/15 15:07:54;;;;;;;6.35;3.53;;;;;;;0.01;0.00;59042.03;10321650;28;20040;-57
2021/07/15 15:12:53;;;;;;;4.30;3.00;;;;;;;0.01;0.00;59042.03;10320922;28;20040;-57
2021/07/15 15:17:52;;;;;;;9.52;4.10;;;;;;;0.01;0.00;59042.03;10315941;28;20072;-57
2021/07/15 15:22:53;;;;;;;13.82;4.18;;;;;;;0.01;0.00;59042.03;10320208;28;20037;-58
2021/07/15 15:27:52;;;;;;;16.42;10.60;;;;;;;0.01;0.00;59042.03;10320787;28;20064;-58
2021/07/15 15:32:51;;;;;;;11.65;6.45;;;;;;;0.01;0.00;59042.03;10319941;28;20064;-57
2021/07/15 15:37:49;;;;;;;11.50;3.67;;;;;;;0.01;0.00;59042.03;10318653;28;20056;-57
2021/07/15 15:42:49;;;;;;;8.00;4.82;;;;;;;0.01;0.00;59042.03;10319844;28;20040;-57
2021/07/15 15:47:53;;;;;;;11.68;3.58;;;;;;;0.01;0.00;59042.03;10320564;28;20127;-57
2021/07/15 15:52:52;;;;;;;5.70;3.90;;;;;;;0.01;0.00;59042.03;10320026;28;20040;-57
2021/07/15 15:57:53;;;;;;;9.00;3.80;;;;;;;0.01;0.00;59042.03;10319772;28;20064;-57
2021/07/15 16:02:52;;;;;;;10.18;4.68;;;;;;;0.01;0.00;59042.03;10318231;28;20075;-58
2021/07/15 16:07:52;;;;;;;12.57;4.63;;;;;;;0.01;0.00;59042.03;10318415;28;20410;-57
2021/07/15 16:12:54;;;;;;;9.18;4.18;;;;;;;0.01;0.00;59042.03;10319610;28;20066;-57
2021/07/15 16:17:55;;;;;;;8.32;3.70;;;;;;;0.01;0.00;59042.03;10319253;28;20048;-57
2021/07/15 16:22:55;;;;;;;8.75;4.70;;;;;;;0.01;0.00;59042.03;10319492;28;20470;-58
2021/07/15 16:27:56;;;;;;;8.00;4.30;;;;;;;0.01;0.00;59042.03;10318132;28;20048;-57
2021/07/15 16:32:57;;;;;;;17.08;5.30;;;;;;;0.01;0.00;59042.03;10314622;28;20461;-57
2021/07/15 16:37:56;;;;;;;13.20;4.78;;;;;;;0.01;0.00;59042.03;10317741;28;20080;-58
2021/07/15 16:42:56;;;;;;;13.77;4.82;;;;;;;0.01;0.00;59042.03;10318957;28;20075;-57
2021/07/15 16:47:56;;;;;;;10.00;4.10;;;;;;;0.01;0.00;59042.03;10318590;28;20083;-59
2021/07/15 16:52:55;;;;;;;9.32;4.25;;;;;;;0.01;0.00;59042.03;10318087;28;20440;-59
2021/07/15 16:57:54;;;;;;;12.27;3.67;;;;;;;0.01;0.00;59042.03;10318346;28;20052;-60
2021/07/15 17:02:54;;;;;;;8.15;4.97;;;;;;;0.01;0.00;59042.03;10317513;28;20098;-60
2021/07/15 17:07:54;;;;;;;9.60;3.70;;;;;;;0.01;0.00;59042.03;10300151;28;20513;-60
2021/07/15 17:12:52;;;;;;;7.15;4.03;;;;;;;0.01;0.00;59042.03;10307926;28;20072;-59
2021/07/15 17:17:51;;;;;;;14.32;4.32;;;;;;;0.01;0.00;59042.03;10311859;28;20072;-59
2021/07/15 17:22:52;;;;;;;9.70;4.88;;;;;;;0.01;0.00;59042.03;10313301;28;20072;-59
2021/07/15 17:27:50;;;;;;;15.15;4.30;;;;;;;0.01;0.00;59042.03;10313052;28;20075;-59
2021/07/15 17:32:49;;;;;;;9.30;3.70;;;;;;;0.01;0.00;59042.03;10312313;28;20450;-58
2021/07/15 17:37:48;;;;;;;8.57;3.50;;;;;;;0.01;0.00;59042.03;10305625;28;20078;-58
2021/07/15 17:42:48;;;;;;;12.35;3.53;;;;;;;0.01;0.00;59042.03;10306530;28;20067;-57
2021/07/15 17:47:47;;;;;;;7.97;3.75;;;;;;;0.01;0.00;59042.03;10301205;28;20111;-59
2021/07/15 17:52:46;;;;;;;12.13;3.58;;;;;;;0.01;0.00;59042.03;10308610;28;20079;-57
2021/07/15 17:57:46;;;;;;;14.35;4.90;;;;;;;0.01;0.00;59042.03;10311437;28;20141;-59
2021/07/15 18:02:46;;;;;;;12.38;4.03;;;;;;;0.01;0.00;59042.03;10305250;28;20072;-61
2021/07/15 18:07:46;;;;;;;14.60;3.85;;;;;;;0.01;0.00;59042.03;10310061;28;20072;-61
2021/07/15 18:12:45;;;;;;;11.80;3.33;;;;;;;0.01;0.00;59042.03;10311807;28;20317;-61
2021/07/15 18:17:47;;;;;;;8.07;3.65;;;;;;;0.01;0.00;59042.03;10314917;28;20139;-62
2021/07/15 18:22:46;;;;;;;15.55;4.07;;;;;;;0.01;0.00;59042.03;10298024;28;20044;-61
2021/07/15 18:27:45;;;;;;;8.07;4.30;;;;;;;0.01;0.00;59042.03;10316153;28;20036;-62
2021/07/15 18:32:45;;;;;;;10.48;3.40;;;;;;;0.01;0.00;59042.03;10315923;28;20068;-61
2021/07/15 18:37:46;;;;;;;15.07;4.60;;;;;;;0.01;0.00;59042.03;10314898;28;20052;-61
2021/07/15 18:42:46;;;;;;;9.65;3.20;;;;;;;0.01;0.00;59042.03;10315974;28;20072;-61
2021/07/15 18:47:46;;;;;;;5.47;3.10;;;;;;;0.01;0.00;59042.03;10314613;28;20049;-61
2021/07/15 18:52:47;;;;;;;10.15;3.40;;;;;;;0.01;0.00;59042.03;10313874;28;20045;-61
2021/07/15 18:57:49;;;;;;;8.25;3.63;;;;;;;0.01;0.00;59042.03;10315984;28;20040;-61
2021/07/15 19:02:48;;;;;;;12.80;3.40;;;;;;;0.01;0.00;59042.03;10322687;28;20076;-61
2021/07/15 19:07:49;;;;;;;11.63;4.05;;;;;;;0.01;0.00;59042.03;10322029;28;20037;-60
2021/07/15 19:12:48;;;;;;;6.55;3.47;;;;;;;0.01;0.00;59042.03;10322045;28;20048;-61
2021/07/15 19:17:47;;;;;;;10.80;3.75;;;;;;;0.01;0.00;59042.03;10321702;28;20048;-60
2021/07/15 19:22:48;;;;;;;6.13;2.83;;;;;;;0.01;0.00;59042.03;10322002;28;20079;-59
2021/07/15 19:27:48;;;;;;;9.77;3.13;;;;;;;0.01;0.00;59042.03;10321646;28;20068;-61
2021/07/15 19:32:47;;;;;;;10.88;2.90;;;;;;;0.01;0.00;59042.03;10303056;28;20508;-61
2021/07/15 19:37:48;;;;;;;13.07;3.20;;;;;;;0.01;0.00;59042.03;10320999;28;20044;-62
2021/07/15 19:42:49;;;;;;;10.80;3.00;;;;;;;0.01;0.00;59042.03;10321446;28;20226;-61
2021/07/15 19:47:48;;;;;;;11.45;3.05;;;;;;;0.01;0.00;59042.03;10286584;28;20441;-61
2021/07/15 19:52:50;;;;;;;7.70;2.90;;;;;;;0.01;0.00;59042.03;10279307;28;20049;-62
2021/07/15 19:57:49;;;;;;;12.73;3.45;;;;;;;0.01;0.00;59042.03;10280037;28;20044;-61
2021/07/15 20:02:49;;;;;;;15.15;3.42;;;;;;;0.01;0.00;59042.03;10279106;28;20319;-61
2021/07/15 20:07:49;;;;;;;8.68;2.17;;;;;;;0.01;0.00;59042.03;10279148;28;20056;-62
2021/07/15 20:12:49;;;;;;;9.10;2.53;;;;;;;0.01;0.00;59042.03;10278835;28;20048;-61
2021/07/15 20:17:48;;;;;;;8.82;3.00;;;;;;;0.01;0.00;59042.03;10260592;28;20041;-61
2021/07/15 20:22:49;;;;;;;10.13;2.80;;;;;;;0.01;0.00;59042.03;10256643;28;20072;-61
2021/07/15 20:27:47;;;;;;;9.45;2.85;;;;;;;0.01;0.00;59042.03;10278457;28;20041;-62
2021/07/15 20:32:48;;;;;;;9.15;2.63;;;;;;;0.01;0.00;59042.03;10278101;28;20045;-62
2021/07/15 20:37:49;;;;;;;8.48;2.10;;;;;;;0.01;0.00;59042.03;10278694;28;20048;-62
2021/07/15 20:42:48;;;;;;;7.10;2.85;;;;;;;0.01;0.00;59042.03;10277553;28;20091;-62
2021/07/15 20:47:47;;;;;;;5.68;2.72;;;;;;;0.01;0.00;59042.03;10269857;28;20060;-61
2021/07/15 20:52:46;;;;;;;4.80;2.60;;;;;;;0.01;0.00;59042.03;10257889;28;20075;-61
2021/07/15 20:57:46;;;;;;;7.75;2.88;;;;;;;0.01;0.00;59042.03;10256637;28;20080;-61
2021/07/15 21:03:03;;;;;;;6.57;2.20;;;;;;;0.01;0.00;59042.03;10256620;28;20077;-61
2021/07/15 21:08:02;;;;;;;7.75;2.75;;;;;;;0.01;0.00;59042.03;10255206;28;20045;-61
2021/07/15 21:13:02;;;;;;;11.43;2.88;;;;;;;0.01;0.00;59042.03;10255601;28;20483;-61
2021/07/15 21:18:01;;;;;;;3.55;2.33;;;;;;;0.01;0.00;59042.03;10255433;28;20087;-61
2021/07/15 21:23:00;;;;;;;6.45;2.47;;;;;;;0.01;0.00;59042.03;10274272;28;20068;-61
2021/07/15 21:27:58;;;;;;;6.18;2.50;;;;;;;0.01;0.00;59042.03;10274233;28;20449;-61
2021/07/15 21:32:58;;;;;;;6.10;2.72;;;;;;;0.01;0.00;59042.03;10275175;28;20041;-61
2021/07/15 21:37:57;;;;;;;4.10;2.40;;;;;;;0.01;0.00;59042.03;10275703;28;20048;-61
2021/07/15 21:42:58;;;;;;;10.43;3.22;;;;;;;0.01;0.00;59042.03;10274607;28;20068;-61
2021/07/15 21:47:57;;;;;;;3.92;2.45;;;;;;;0.01;0.00;59042.03;10311076;28;20086;-61
2021/07/15 21:52:59;;;;;;;7.82;2.50;;;;;;;0.01;0.00;59042.03;10316757;28;20044;-61
2021/07/15 21:57:58;;;;;;;6.82;2.72;;;;;;;0.01;0.00;59042.03;10313947;28;20378;-61
2021/07/15 22:02:57;;;;;;;10.52;3.42;;;;;;;0.01;0.00;59042.03;10306203;28;20445;-61
2021/07/15 22:07:57;;;;;;;12.43;3.72;;;;;;;0.01;0.00;59042.03;10316562;28;20041;-61
2021/07/15 22:12:58;;;;;;;6.30;3.20;;;;;;;0.01;0.00;59042.03;10316760;28;20041;-61
2021/07/15 22:17:59;;;;;;;7.03;2.88;;;;;;;0.01;0.00;59042.03;10314247;28;20102;-61
2021/07/15 22:23:02;;;;;;;7.03;2.70;;;;;;;0.01;0.00;59042.03;10314494;28;20524;-62
2021/07/15 22:28:05;;;;;;;5.20;3.20;;;;;;;0.01;0.00;59042.03;10295619;28;20587;-62
2021/07/15 22:33:06;;;;;;;9.43;3.87;;;;;;;0.01;0.00;59042.03;10317471;28;20055;-62
2021/07/15 22:38:05;;;;;;;7.22;3.40;;;;;;;0.01;0.00;59042.03;10322214;28;20079;-62
2021/07/15 22:43:05;;;;;;;6.25;3.65;;;;;;;0.01;0.00;59042.03;10321027;28;20099;-61
2021/07/15 22:48:04;;;;;;;10.40;4.43;;;;;;;0.01;0.00;59042.03;10321943;28;20055;-61
2021/07/15 22:53:06;;;;;;;6.10;4.28;;;;;;;0.01;0.00;59042.03;10322533;28;20041;-61
2021/07/15 22:58:07;;;;;;;12.00;4.25;;;;;;;0.01;0.00;59042.03;10319867;28;20084;-61
2021/07/15 23:03:06;;;;;;;4.10;3.08;;;;;;;0.01;0.00;59042.03;10321853;28;20080;-61
2021/07/15 23:08:06;;;;;;;9.82;3.08;;;;;;;0.01;0.00;59042.03;10320643;28;20071;-61
2021/07/15 23:13:10;;;;;;;5.40;2.47;;;;;;;0.01;0.00;59042.03;10322553;28;20072;-61
2021/07/15 23:18:09;;;;;;;8.00;2.30;;;;;;;0.01;0.00;59042.03;10320651;28;20037;-61
2021/07/15 23:23:09;;;;;;;7.97;2.33;;;;;;;0.01;0.00;59042.03;10319726;28;20115;-61
2021/07/15 23:28:09;;;;;;;10.27;2.67;;;;;;;0.01;0.00;59042.03;10321084;28;20059;-61
2021/07/15 23:33:09;;;;;;;5.63;2.38;;;;;;;0.01;0.00;59042.03;10320990;28;20044;-61
2021/07/15 23:38:07;;;;;;;5.20;2.58;;;;;;;0.01;0.00;59042.03;10319882;28;20472;-62
2021/07/15 23:43:06;;;;;;;9.40;2.38;;;;;;;0.01;0.00;59042.03;10321545;28;20079;-62
2021/07/15 23:48:07;;;;;;;6.97;2.83;;;;;;;0.01;0.00;59042.03;10316784;28;20083;-62
2021/07/15 23:53:05;;;;;;;8.52;2.50;;;;;;;0.01;0.00;59042.03;10320684;28;20072;-62